Avalon, Texas
Current Conditions -  °F | °C
As of 1:55 AM on Thursday 29 Jan 2015 (Local Time) from KJWY Reporting Station
Overcast Overcast  
Wind Chill: 63°   Ceiling: 9500
Heat Index: 63°   Visibility: 10mi
Dew Point: 43°   Wind: 12mph
Humidity: 49%   Direction: 210°SSW
Pressure: 30.08"   Gusts: 20mph
Location:  32.21°N, 96.79°W
Report Text: KJWY 290755Z AUTO 21010G17KT 10SM OVC095 17/06 A3008 RMK AO2 T01710063
Loading
Personal Weather Stations






























Interactive Weather Map New forecast layout! Learn more

10-Day Weather Forecast

Advertisements
Track Severe Weather on mobile